Airport View

Enter AWOS ICAO identifier for current METAR.

ex. KFNL

KRCR 191815Z AUTO 26009KT 5SM HZ SCT008 BKN019 M10/M15 A3027 RMK AO2

19 Jan 2020 18:37

Frequency: 118.775

Phone: 574-223-3560

Other Area AWOS: KASW - KGGP - KGUS - KOXI

TAF AMD KGUS 191406Z 1914/2017 28012G18KT 4800 BLSN OVC020 620209 510043 QNH3020INS TEMPO 1914/2006 28020G25KT 3200 BLSN OVC017 BECMG 2005/2006 30006KT 9999 NSW BKN012 510063 QNH3042INS BECMG 2008/2009 VRB06KT 9999 BKN006 QNH3046INS BECMG 2011/2012 VRB06KT 9999 SCT007 QNH3052INS TXM07/2005Z TNM15/1914Z